Time;durP1;ratioP1;P1;durP2;ratioP2;P2;SDS_P1;SDS_P2;PMS_P1;PMS_P2;Temp;Humidity;BMP_temperature;BMP_pressure;BME280_temperature;BME280_humidity;BME280_pressure;Samples;Min_cycle;Max_cycle;Signal;HPM_P1;HPM_P2
2022/05/25 00:01:10;;;;;;;;;;;14.90;99.90;;;;;;4975523;28;19986;-83
2022/05/25 00:03:36;;;;;;;;;;;14.90;99.90;;;;;;4975590;28;20402;-83
2022/05/25 00:06:04;;;;;;;;;;;14.80;99.90;;;;;;4975091;28;19910;-83
2022/05/25 00:08:30;;;;;;;;;;;14.80;99.90;;;;;;4975299;28;19917;-83
2022/05/25 00:10:55;;;;;;;;;;;14.70;99.90;;;;;;4975444;28;19910;-83
2022/05/25 00:13:21;;;;;;;;;;;14.70;99.90;;;;;;4975508;28;20259;-83
2022/05/25 00:15:46;;;;;;;;;;;14.70;99.90;;;;;;4974021;28;20272;-83
2022/05/25 00:18:12;;;;;;;;;;;14.70;99.90;;;;;;4975554;28;20408;-83
2022/05/25 00:20:37;;;;;;;;;;;14.70;99.90;;;;;;4975351;28;20403;-83
2022/05/25 00:23:03;;;;;;;;;;;14.70;99.90;;;;;;4975363;28;19910;-83
2022/05/25 00:25:33;;;;;;;;;;;14.70;99.90;;;;;;4974969;28;19941;-83
2022/05/25 00:28:06;;;;;;;;;;;14.70;99.90;;;;;;4957794;28;19953;-83
2022/05/25 00:30:32;;;;;;;;;;;14.60;99.90;;;;;;4973658;28;19910;-83
2022/05/25 00:32:58;;;;;;;;;;;14.60;99.90;;;;;;4975060;28;19910;-83
2022/05/25 00:35:24;;;;;;;;;;;14.70;99.90;;;;;;4975224;28;19917;-83
2022/05/25 00:37:50;;;;;;;;;;;14.70;99.90;;;;;;4975124;28;19911;-83
2022/05/25 00:40:20;;;;;;;;;;;14.70;99.90;;;;;;4974920;28;19926;-83
2022/05/25 00:42:46;;;;;;;;;;;14.60;99.90;;;;;;4975016;28;19919;-83
2022/05/25 00:45:12;;;;;;;;;;;14.60;99.90;;;;;;4974932;28;19917;-83
2022/05/25 00:47:38;;;;;;;;;;;14.60;99.90;;;;;;4974929;28;19917;-83
2022/05/25 00:50:04;;;;;;;;;;;14.60;99.90;;;;;;4974804;28;20301;-83
2022/05/25 00:52:31;;;;;;;;;;;14.60;99.90;;;;;;4975016;28;19918;-83
2022/05/25 00:55:00;;;;;;;;;;;14.60;99.90;;;;;;4974988;28;19917;-83
2022/05/25 00:57:28;;;;;;;;;;;14.60;99.90;;;;;;4974967;28;19915;-83
2022/05/25 01:00:05;;;;;;;;;;;14.60;99.90;;;;;;4975130;28;19917;-84
2022/05/25 01:02:31;;;;;;;;;;;14.60;99.90;;;;;;4974864;28;19973;-84
2022/05/25 01:04:57;;;;;;;;;;;14.60;99.90;;;;;;4974651;28;19914;-83
2022/05/25 01:07:31;;;;;;;;;;;14.60;99.90;;;;;;4974918;28;19910;-83
2022/05/25 01:10:02;;;;;;;;;;;14.60;99.90;;;;;;4974834;28;19950;-83
2022/05/25 01:12:51;;;;;;;;;;;14.60;99.90;;;;;;4975114;28;19965;-83
2022/05/25 01:15:17;;;;;;;;;;;14.60;99.90;;;;;;4966738;28;19918;-83
2022/05/25 01:18:00;;;;;;;;;;;14.60;99.90;;;;;;4974781;28;19916;-83
2022/05/25 01:20:32;;;;;;;;;;;14.70;99.90;;;;;;4974757;28;19937;-83
2022/05/25 01:23:01;;;;;;;;;;;14.70;99.90;;;;;;4974514;28;19996;-83
2022/05/25 01:25:26;;;;;;;;;;;14.60;99.90;;;;;;4974412;28;20474;-83
2022/05/25 01:27:52;;;;;;;;;;;14.70;99.90;;;;;;4974648;28;19949;-83
2022/05/25 01:30:20;;;;;;;;;;;14.70;99.90;;;;;;4974612;28;19925;-83
2022/05/25 01:33:04;;;;;;;;;;;14.70;99.90;;;;;;4974543;28;19938;-83
2022/05/25 01:35:33;;;;;;;;;;;14.70;99.90;;;;;;4974548;28;20013;-83
2022/05/25 01:38:19;;;;;;;;;;;14.70;99.90;;;;;;4976256;28;20001;-83
2022/05/25 01:40:53;;;;;;;;;;;14.70;99.90;;;;;;4967405;28;19922;-83
2022/05/25 01:43:22;;;;;;;;;;;14.60;99.90;;;;;;4977966;28;19921;-83
2022/05/25 01:45:50;;;;;;;;;;;14.60;99.90;;;;;;4978073;28;19918;-83
2022/05/25 01:48:17;;;;;;;;;;;14.60;99.90;;;;;;4978287;28;19910;-83
2022/05/25 01:50:47;;;;;;;;;;;14.60;99.90;;;;;;4978096;28;19910;-83
2022/05/25 01:53:15;;;;;;;;;;;14.60;99.90;;;;;;4978204;28;19910;-83
2022/05/25 01:55:44;;;;;;;;;;;14.60;99.90;;;;;;4978156;28;19910;-83
2022/05/25 01:58:11;;;;;;;;;;;14.60;99.90;;;;;;4977721;28;19965;-83
2022/05/25 02:00:39;;;;;;;;;;;14.60;99.90;;;;;;4977687;28;19910;-83
2022/05/25 02:06:02;;;;;;;;;;;14.60;99.90;;;;;;4978051;28;19917;-83
2022/05/25 02:08:34;;;;;;;;;;;14.60;99.90;;;;;;4960337;28;20267;-83
2022/05/25 02:11:05;;;;;;;;;;;14.60;99.90;;;;;;4977761;28;19910;-83
2022/05/25 02:13:37;;;;;;;;;;;14.60;99.90;;;;;;4977776;28;19919;-83
2022/05/25 02:16:16;;;;;;;;;;;14.70;99.90;;;;;;4977452;28;19910;-83
2022/05/25 02:19:02;;;;;;;;;;;14.70;99.90;;;;;;4977598;28;19911;-83
2022/05/25 02:21:31;;;;;;;;;;;14.70;99.90;;;;;;4947184;28;20468;-83
2022/05/25 02:24:18;;;;;;;;;;;14.70;99.90;;;;;;4977632;28;19910;-83
2022/05/25 02:26:50;;;;;;;;;;;14.80;99.90;;;;;;4977364;28;19950;-83
2022/05/25 02:29:18;;;;;;;;;;;14.80;99.90;;;;;;4977494;28;20386;-83
2022/05/25 02:31:47;;;;;;;;;;;14.90;99.90;;;;;;4977450;28;19910;-83
2022/05/25 02:34:16;;;;;;;;;;;14.90;99.90;;;;;;4977212;28;19910;-83
2022/05/25 02:36:42;;;;;;;;;;;14.90;99.90;;;;;;4977103;28;20274;-83
2022/05/25 02:39:09;;;;;;;;;;;14.90;99.90;;;;;;4977073;28;19917;-82
2022/05/25 02:41:36;;;;;;;;;;;15.00;99.90;;;;;;4976793;28;19922;-83
2022/05/25 02:44:02;;;;;;;;;;;15.00;99.90;;;;;;4977148;28;19910;-83
2022/05/25 02:46:27;;;;;;;;;;;15.00;99.90;;;;;;4977195;28;20000;-83
2022/05/25 02:48:53;;;;;;;;;;;15.00;99.90;;;;;;4976920;28;20397;-83
2022/05/25 02:51:18;;;;;;;;;;;15.00;99.90;;;;;;4976897;28;19910;-83
2022/05/25 02:53:44;;;;;;;;;;;15.00;99.90;;;;;;4976998;28;19910;-83
2022/05/25 02:56:09;;;;;;;;;;;15.00;99.90;;;;;;4976885;28;19957;-83
2022/05/25 02:58:35;;;;;;;;;;;14.90;99.90;;;;;;4976638;28;19910;-83
2022/05/25 03:01:00;;;;;;;;;;;14.90;99.90;;;;;;4976912;28;19965;-83
2022/05/25 03:03:28;;;;;;;;;;;14.80;99.90;;;;;;4976754;28;19910;-83
2022/05/25 03:05:54;;;;;;;;;;;14.80;99.90;;;;;;4976541;28;19910;-83
2022/05/25 03:08:20;;;;;;;;;;;14.80;99.90;;;;;;4976571;28;19964;-83
2022/05/25 03:10:45;;;;;;;;;;;14.80;99.90;;;;;;4976633;28;19914;-83
2022/05/25 03:13:11;;;;;;;;;;;14.80;99.90;;;;;;4976461;28;20330;-83
2022/05/25 03:15:37;;;;;;;;;;;14.80;99.90;;;;;;4976356;28;19972;-83
2022/05/25 03:18:02;;;;;;;;;;;14.80;99.90;;;;;;4976708;28;19953;-83
2022/05/25 03:20:28;;;;;;;;;;;14.70;99.90;;;;;;4976409;28;19937;-83
2022/05/25 03:22:54;;;;;;;;;;;14.70;99.90;;;;;;4958929;28;19918;-83
2022/05/25 03:25:19;;;;;;;;;;;14.70;99.90;;;;;;4976211;28;19910;-83
2022/05/25 03:27:45;;;;;;;;;;;14.60;99.90;;;;;;4976252;28;19914;-83
2022/05/25 03:30:13;;;;;;;;;;;14.60;99.90;;;;;;4976035;28;19910;-83
2022/05/25 03:32:39;;;;;;;;;;;14.60;99.90;;;;;;4975936;28;19914;-83
2022/05/25 03:35:05;;;;;;;;;;;14.60;99.90;;;;;;4976093;28;19911;-83
2022/05/25 03:37:31;;;;;;;;;;;14.50;99.90;;;;;;4976043;28;19910;-83
2022/05/25 03:39:56;;;;;;;;;;;14.60;99.90;;;;;;4958323;28;19926;-83
2022/05/25 03:42:22;;;;;;;;;;;14.60;99.90;;;;;;4976245;28;19924;-83
2022/05/25 03:44:48;;;;;;;;;;;14.60;99.90;;;;;;4975946;28;20001;-83
2022/05/25 03:47:14;;;;;;;;;;;14.60;99.90;;;;;;4975949;28;19910;-83
2022/05/25 03:49:40;;;;;;;;;;;14.50;99.90;;;;;;4975736;28;19910;-83
2022/05/25 03:52:06;;;;;;;;;;;14.50;99.90;;;;;;4975757;28;20330;-83
2022/05/25 03:54:32;;;;;;;;;;;14.60;99.90;;;;;;4975736;28;19910;-83
2022/05/25 03:56:57;;;;;;;;;;;14.60;99.90;;;;;;4975697;28;19910;-83
2022/05/25 03:59:24;;;;;;;;;;;14.50;99.90;;;;;;4975855;28;20350;-83
2022/05/25 04:01:50;;;;;;;;;;;14.50;99.90;;;;;;4974982;28;19925;-83
2022/05/25 04:04:15;;;;;;;;;;;14.50;99.90;;;;;;4975611;28;20008;-83
2022/05/25 04:06:41;;;;;;;;;;;14.60;99.90;;;;;;4975772;28;19954;-83
2022/05/25 04:09:09;;;;;;;;;;;14.60;99.90;;;;;;4975396;28;19964;-83
2022/05/25 04:11:34;;;;;;;;;;;14.50;99.90;;;;;;4975254;28;19993;-83
2022/05/25 04:14:03;;;;;;;;;;;14.50;99.90;;;;;;4975423;28;20028;-83
2022/05/25 04:16:29;;;;;;;;;;;14.50;99.90;;;;;;4975498;28;20011;-83
2022/05/25 04:18:55;;;;;;;;;;;14.60;99.90;;;;;;4975600;28;19910;-83
2022/05/25 04:21:20;;;;;;;;;;;14.50;99.90;;;;;;4975250;28;20024;-83
2022/05/25 04:23:46;;;;;;;;;;;14.50;99.90;;;;;;4973950;28;20381;-83
2022/05/25 04:26:12;;;;;;;;;;;14.50;99.90;;;;;;4957650;28;19911;-83
2022/05/25 04:28:37;;;;;;;;;;;14.50;99.90;;;;;;4975068;28;20366;-83
2022/05/25 04:31:03;;;;;;;;;;;14.50;99.90;;;;;;4975188;28;19918;-83
2022/05/25 04:33:30;;;;;;;;;;;14.50;99.90;;;;;;4975623;28;20272;-83
2022/05/25 04:35:57;;;;;;;;;;;14.50;99.90;;;;;;4975410;28;19997;-83
2022/05/25 04:38:23;;;;;;;;;;;14.60;99.90;;;;;;4975336;28;19910;-83
2022/05/25 04:40:48;;;;;;;;;;;14.60;99.90;;;;;;4974914;28;19929;-83
2022/05/25 04:43:15;;;;;;;;;;;14.60;99.90;;;;;;4974787;28;19957;-83
2022/05/25 04:45:41;;;;;;;;;;;14.60;99.90;;;;;;4974860;28;19910;-83
2022/05/25 04:48:07;;;;;;;;;;;14.60;99.90;;;;;;4975032;28;19910;-85
2022/05/25 04:50:35;;;;;;;;;;;14.60;99.90;;;;;;4975174;28;19973;-84
2022/05/25 04:53:01;;;;;;;;;;;14.70;99.90;;;;;;4975223;28;19918;-84
2022/05/25 04:58:18;;;;;;;;;;;14.80;99.90;;;;;;4975197;28;20215;-84
2022/05/25 05:00:44;;;;;;;;;;;14.70;99.90;;;;;;4974792;28;19964;-84
2022/05/25 05:03:09;;;;;;;;;;;14.70;99.90;;;;;;4974448;28;20325;-84
2022/05/25 05:05:35;;;;;;;;;;;14.70;99.90;;;;;;4975006;28;19917;-84
2022/05/25 05:08:00;;;;;;;;;;;14.70;99.90;;;;;;4974974;28;20286;-84
2022/05/25 05:10:26;;;;;;;;;;;14.80;99.90;;;;;;4973525;28;19956;-84
2022/05/25 05:12:52;;;;;;;;;;;14.80;99.90;;;;;;4976233;28;20359;-84
2022/05/25 05:15:18;;;;;;;;;;;14.90;99.90;;;;;;4978778;28;20286;-85
2022/05/25 05:17:43;;;;;;;;;;;14.90;99.90;;;;;;4979224;28;19917;-84
2022/05/25 05:20:09;;;;;;;;;;;14.90;99.90;;;;;;4977108;28;20390;-85
2022/05/25 05:22:34;;;;;;;;;;;15.00;99.90;;;;;;4978422;28;19933;-84
2022/05/25 05:25:00;;;;;;;;;;;15.00;99.90;;;;;;4978433;28;19933;-85
2022/05/25 05:27:26;;;;;;;;;;;15.10;99.90;;;;;;4978610;28;20041;-84
2022/05/25 05:29:51;;;;;;;;;;;15.20;99.90;;;;;;4978408;28;19910;-85
2022/05/25 05:32:17;;;;;;;;;;;15.20;99.90;;;;;;4978465;28;19973;-84
2022/05/25 05:34:42;;;;;;;;;;;15.30;99.90;;;;;;4979009;28;19973;-84
2022/05/25 05:37:12;;;;;;;;;;;15.30;99.90;;;;;;4978339;28;19917;-85
2022/05/25 05:39:39;;;;;;;;;;;15.40;99.90;;;;;;4978148;28;19918;-84
2022/05/25 05:42:07;;;;;;;;;;;15.40;99.90;;;;;;4979580;28;19910;-83
2022/05/25 05:44:35;;;;;;;;;;;15.50;99.90;;;;;;4978257;28;19911;-84
2022/05/25 05:47:02;;;;;;;;;;;15.40;99.90;;;;;;4977968;28;19956;-84
2022/05/25 05:49:28;;;;;;;;;;;15.50;99.90;;;;;;4978146;28;19917;-84
2022/05/25 05:51:54;;;;;;;;;;;15.50;99.90;;;;;;4978219;28;19918;-84
2022/05/25 05:54:19;;;;;;;;;;;15.50;99.90;;;;;;4978346;28;19912;-84
2022/05/25 05:56:45;;;;;;;;;;;15.50;99.90;;;;;;4977960;28;19910;-84
2022/05/25 05:59:10;;;;;;;;;;;15.50;99.90;;;;;;4978376;28;19910;-84
2022/05/25 06:01:36;;;;;;;;;;;15.60;99.90;;;;;;4977863;28;19914;-84
2022/05/25 06:04:02;;;;;;;;;;;15.70;99.90;;;;;;4977806;28;19910;-84
2022/05/25 06:06:28;;;;;;;;;;;15.80;99.90;;;;;;4977740;28;19965;-84
2022/05/25 06:08:53;;;;;;;;;;;15.80;99.90;;;;;;4960209;28;20017;-84
2022/05/25 06:11:20;;;;;;;;;;;15.90;99.90;;;;;;4977620;28;20006;-84
2022/05/25 06:13:45;;;;;;;;;;;15.90;99.90;;;;;;4977743;28;20057;-84
2022/05/25 06:21:40;;;;;;;;;;;16.10;99.90;;;;;;4977420;28;20043;-84
2022/05/25 06:24:05;;;;;;;;;;;16.20;99.90;;;;;;4976968;28;20374;-84
2022/05/25 06:26:32;;;;;;;;;;;16.20;99.90;;;;;;4977126;28;19910;-84
2022/05/25 06:28:57;;;;;;;;;;;16.20;99.90;;;;;;4976032;28;19993;-84
2022/05/25 06:31:23;;;;;;;;;;;16.30;99.90;;;;;;4977179;28;20000;-84
2022/05/25 06:33:49;;;;;;;;;;;16.40;99.90;;;;;;4959783;28;19996;-84
2022/05/25 06:36:16;;;;;;;;;;;16.40;99.90;;;;;;4977320;28;19910;-84
2022/05/25 06:38:42;;;;;;;;;;;16.40;99.90;;;;;;4977251;28;19914;-84
2022/05/25 06:41:08;;;;;;;;;;;16.40;99.90;;;;;;4975626;28;19929;-84
2022/05/25 06:43:33;;;;;;;;;;;16.40;99.90;;;;;;4976890;28;19914;-84
2022/05/25 06:45:59;;;;;;;;;;;16.40;99.90;;;;;;4976936;28;19910;-84
2022/05/25 06:48:24;;;;;;;;;;;16.40;99.90;;;;;;4976948;28;19996;-84
2022/05/25 06:50:50;;;;;;;;;;;16.40;99.90;;;;;;4976799;28;19917;-84
2022/05/25 06:53:15;;;;;;;;;;;16.40;99.90;;;;;;4977077;28;20362;-84
2022/05/25 06:55:41;;;;;;;;;;;16.30;99.90;;;;;;4977079;28;19914;-84
2022/05/25 06:58:07;;;;;;;;;;;16.30;99.90;;;;;;4976959;28;19937;-84
2022/05/25 07:00:32;;;;;;;;;;;16.30;99.90;;;;;;4976910;28;20567;-84
2022/05/25 07:03:01;;;;;;;;;;;16.30;99.90;;;;;;4976832;28;19965;-84
2022/05/25 07:05:26;;;;;;;;;;;16.30;99.90;;;;;;4976485;28;20009;-84
2022/05/25 07:07:52;;;;;;;;;;;16.40;99.90;;;;;;4976628;28;20037;-84
2022/05/25 07:10:17;;;;;;;;;;;16.40;99.90;;;;;;4976415;28;19960;-84
2022/05/25 07:12:43;;;;;;;;;;;16.50;99.90;;;;;;4976325;28;20469;-84
2022/05/25 07:15:09;;;;;;;;;;;16.70;99.90;;;;;;4976621;28;19910;-84
2022/05/25 07:17:35;;;;;;;;;;;16.90;99.90;;;;;;4976483;28;19917;-84
2022/05/25 07:20:02;;;;;;;;;;;16.90;99.90;;;;;;4975215;28;19961;-84
2022/05/25 07:22:27;;;;;;;;;;;17.00;99.90;;;;;;4976455;28;19910;-84
2022/05/25 07:24:53;;;;;;;;;;;17.20;99.90;;;;;;4976125;28;20286;-84
2022/05/25 07:27:18;;;;;;;;;;;17.20;99.90;;;;;;4976307;28;19973;-84
2022/05/25 07:29:44;;;;;;;;;;;17.10;99.90;;;;;;4976149;28;20009;-84
2022/05/25 07:32:11;;;;;;;;;;;17.00;99.90;;;;;;4975989;28;19925;-84
2022/05/25 07:34:39;;;;;;;;;;;16.90;99.90;;;;;;4975795;28;19914;-84
2022/05/25 07:37:10;;;;;;;;;;;17.00;99.90;;;;;;4975542;28;19910;-84
2022/05/25 07:39:39;;;;;;;;;;;17.00;99.90;;;;;;4976128;28;19973;-84
2022/05/25 07:42:05;;;;;;;;;;;17.00;99.90;;;;;;4976005;28;20375;-84
2022/05/25 07:44:33;;;;;;;;;;;17.10;99.90;;;;;;4976025;28;19917;-84
2022/05/25 07:46:58;;;;;;;;;;;17.10;99.90;;;;;;4975487;28;19911;-84
2022/05/25 07:49:24;;;;;;;;;;;17.20;99.90;;;;;;4975428;28;20278;-84
2022/05/25 07:51:51;;;;;;;;;;;17.20;99.90;;;;;;4975867;28;19925;-84
2022/05/25 07:54:17;;;;;;;;;;;17.30;99.90;;;;;;4975924;28;20354;-84
2022/05/25 07:56:42;;;;;;;;;;;17.40;99.90;;;;;;4975705;28;19965;-84
2022/05/25 07:59:09;;;;;;;;;;;17.30;99.90;;;;;;4976125;28;19911;-84
2022/05/25 08:07:12;;;;;;;;;;;17.50;99.90;;;;;;4975637;28;20053;-84
2022/05/25 08:09:38;;;;;;;;;;;17.60;99.90;;;;;;4975478;28;20369;-84
2022/05/25 08:12:06;;;;;;;;;;;17.70;99.90;;;;;;4975316;28;19941;-84
2022/05/25 08:14:32;;;;;;;;;;;17.90;99.90;;;;;;4975451;28;19957;-84
2022/05/25 08:16:57;;;;;;;;;;;17.80;99.90;;;;;;4975448;28;19910;-84
2022/05/25 08:19:23;;;;;;;;;;;17.80;99.90;;;;;;4975754;28;20005;-84
2022/05/25 08:21:50;;;;;;;;;;;17.70;99.90;;;;;;4975603;28;19910;-84
2022/05/25 08:24:16;;;;;;;;;;;17.40;99.90;;;;;;4975405;28;19910;-84
2022/05/25 08:26:42;;;;;;;;;;;17.10;99.90;;;;;;4975584;28;20378;-84
2022/05/25 08:29:07;;;;;;;;;;;17.20;99.90;;;;;;4975294;28;19953;-84
2022/05/25 08:31:33;;;;;;;;;;;17.30;99.90;;;;;;4973684;28;19918;-84
2022/05/25 08:33:58;;;;;;;;;;;17.40;99.90;;;;;;4975582;28;19910;-84
2022/05/25 08:36:24;;;;;;;;;;;17.60;99.90;;;;;;4975236;28;20386;-84
2022/05/25 08:38:52;;;;;;;;;;;17.60;99.90;;;;;;4975217;28;20274;-84
2022/05/25 08:41:22;;;;;;;;;;;17.70;99.90;;;;;;4974346;28;20058;-84
2022/05/25 08:43:48;;;;;;;;;;;17.80;99.90;;;;;;4974233;28;19910;-84
2022/05/25 08:46:18;;;;;;;;;;;18.00;99.90;;;;;;4973922;28;19941;-84
2022/05/25 08:48:44;;;;;;;;;;;18.00;99.90;;;;;;4974041;28;19917;-84
2022/05/25 08:51:14;;;;;;;;;;;17.90;99.90;;;;;;4974201;28;20293;-84
2022/05/25 08:53:40;;;;;;;;;;;17.90;99.90;;;;;;4973991;28;19917;-84
2022/05/25 08:56:24;;;;;;;;;;;17.90;99.90;;;;;;4974231;28;19910;-84
2022/05/25 08:59:04;;;;;;;;;;;17.90;99.90;;;;;;4974338;28;20374;-84
2022/05/25 09:01:39;;;;;;;;;;;18.00;99.90;;;;;;4974305;28;19933;-84
2022/05/25 09:04:04;;;;;;;;;;;18.10;99.90;;;;;;4974107;28;19964;-84
2022/05/25 09:06:33;;;;;;;;;;;18.20;99.90;;;;;;4972732;28;19910;-84
2022/05/25 09:09:05;;;;;;;;;;;18.10;99.90;;;;;;4972541;28;20032;-84
2022/05/25 09:11:33;;;;;;;;;;;18.10;99.90;;;;;;4972453;28;19962;-84
2022/05/25 09:14:02;;;;;;;;;;;18.00;99.90;;;;;;4973756;28;19978;-84
2022/05/25 09:16:29;;;;;;;;;;;18.10;99.90;;;;;;4956481;28;20282;-84
2022/05/25 09:19:05;;;;;;;;;;;18.30;99.90;;;;;;4973671;28;20454;-84
2022/05/25 09:21:31;;;;;;;;;;;18.30;99.90;;;;;;4974020;28;20294;-84
2022/05/25 09:23:58;;;;;;;;;;;18.30;99.90;;;;;;4972429;28;20400;-84
2022/05/25 09:26:25;;;;;;;;;;;18.40;99.90;;;;;;4973748;28;20282;-84
2022/05/25 09:28:53;;;;;;;;;;;18.40;99.90;;;;;;4973801;28;19910;-84
2022/05/25 09:31:23;;;;;;;;;;;18.50;99.90;;;;;;4973514;28;19918;-84
2022/05/25 09:33:51;;;;;;;;;;;18.50;99.90;;;;;;4973631;28;20004;-84
2022/05/25 09:36:20;;;;;;;;;;;18.60;99.90;;;;;;4973729;28;19932;-84
2022/05/25 09:38:46;;;;;;;;;;;18.60;99.90;;;;;;4973811;28;19917;-84
2022/05/25 09:41:19;;;;;;;;;;;18.50;99.90;;;;;;4909070;28;1886038;-84
2022/05/25 09:43:44;;;;;;;;;;;18.50;99.90;;;;;;4974612;28;19972;-84
2022/05/25 09:46:20;;;;;;;;;;;18.60;99.90;;;;;;4974698;28;20378;-84
2022/05/25 09:49:18;;;;;;;;;;;18.50;99.90;;;;;;4974357;28;20290;-84
2022/05/25 09:51:50;;;;;;;;;;;18.60;99.90;;;;;;4941549;28;19918;-83
2022/05/25 09:54:21;;;;;;;;;;;18.70;99.90;;;;;;4974356;28;19914;-84
2022/05/25 09:56:53;;;;;;;;;;;18.70;99.90;;;;;;4974309;28;20009;-84
2022/05/25 09:59:38;;;;;;;;;;;18.70;99.90;;;;;;4976050;28;19957;-84
2022/05/25 10:02:23;;;;;;;;;;;18.60;99.90;;;;;;4977296;28;19916;-84
2022/05/25 10:04:52;;;;;;;;;;;18.70;99.90;;;;;;4977792;28;19910;-84
2022/05/25 10:07:38;;;;;;;;;;;18.70;99.90;;;;;;4977791;28;20029;-84
2022/05/25 10:10:06;;;;;;;;;;;18.80;99.90;;;;;;4977047;28;20362;-84
2022/05/25 10:12:32;;;;;;;;;;;18.80;99.90;;;;;;4977484;28;19953;-84
2022/05/25 10:15:03;;;;;;;;;;;18.80;99.90;;;;;;4977511;28;20271;-84
2022/05/25 10:17:34;;;;;;;;;;;18.90;98.50;;;;;;4977740;28;19918;-84
2022/05/25 10:20:00;;;;;;;;;;;18.90;97.50;;;;;;4977823;28;19956;-84
2022/05/25 10:22:44;;;;;;;;;;;18.90;98.00;;;;;;4976338;28;19911;-84
2022/05/25 10:25:13;;;;;;;;;;;19.00;97.00;;;;;;4977422;28;19980;-84
2022/05/25 10:27:40;;;;;;;;;;;19.10;98.50;;;;;;4977415;28;20358;-84
2022/05/25 10:36:45;;;;;;;;;;;19.10;99.90;;;;;;4977256;28;19936;-84
2022/05/25 10:39:14;;;;;;;;;;;19.10;99.90;;;;;;4977207;28;19936;-84
2022/05/25 10:41:41;;;;;;;;;;;19.10;99.90;;;;;;4977162;28;19985;-84
2022/05/25 10:44:06;;;;;;;;;;;19.20;99.90;;;;;;4977119;28;19914;-84
2022/05/25 10:46:32;;;;;;;;;;;19.20;99.90;;;;;;4977001;28;19910;-83
2022/05/25 10:49:01;;;;;;;;;;;19.10;99.90;;;;;;4977041;28;19910;-84
2022/05/25 10:51:42;;;;;;;;;;;19.10;99.90;;;;;;4976896;28;19965;-84
2022/05/25 10:57:13;;;;;;;;;;;19.10;99.90;;;;;;4976778;28;19933;-84
2022/05/25 10:59:41;;;;;;;;;;;19.10;99.80;;;;;;4976700;28;19965;-84
2022/05/25 11:02:15;;;;;;;;;;;19.00;99.90;;;;;;4976771;28;19914;-84
2022/05/25 11:04:52;;;;;;;;;;;19.20;99.70;;;;;;4959694;28;19910;-84
2022/05/25 11:07:32;;;;;;;;;;;19.20;99.40;;;;;;4976960;28;19910;-84
2022/05/25 11:10:01;;;;;;;;;;;19.30;97.00;;;;;;4985551;28;19922;-84
2022/05/25 11:12:27;;;;;;;;;;;19.40;97.30;;;;;;4986872;28;20220;-84
2022/05/25 11:15:08;;;;;;;;;;;19.30;97.40;;;;;;4986486;28;19937;-83
2022/05/25 11:17:48;;;;;;;;;;;19.40;97.70;;;;;;4986520;28;19989;-84
2022/05/25 11:20:39;;;;;;;;;;;19.50;98.60;;;;;;4986432;28;19938;-83
2022/05/25 11:23:05;;;;;;;;;;;19.40;97.30;;;;;;4985730;28;19907;-82
2022/05/25 11:25:30;;;;;;;;;;;19.40;96.60;;;;;;4981975;28;20061;-84
2022/05/25 11:27:56;;;;;;;;;;;19.30;97.20;;;;;;4978015;28;20003;-78
2022/05/25 11:30:21;;;;;;;;;;;19.20;97.80;;;;;;4980474;28;19976;-78
2022/05/25 11:32:53;;;;;;;;;;;19.30;97.40;;;;;;4981065;28;19918;-78
2022/05/25 11:35:26;;;;;;;;;;;19.40;97.80;;;;;;4968637;28;19906;-78
2022/05/25 11:38:05;;;;;;;;;;;19.40;98.10;;;;;;4982260;28;19910;-78
2022/05/25 11:40:30;;;;;;;;;;;19.50;97.30;;;;;;4978423;28;19923;-78
2022/05/25 11:43:05;;;;;;;;;;;19.50;98.20;;;;;;4978196;28;19912;-78
2022/05/25 11:45:40;;;;;;;;;;;19.50;99.60;;;;;;4980104;28;19946;-79
2022/05/25 11:48:24;;;;;;;;;;;19.70;98.10;;;;;;4985756;28;19906;-79
2022/05/25 11:51:01;;;;;;;;;;;19.90;98.70;;;;;;4980476;28;19963;-78
2022/05/25 11:53:50;;;;;;;;;;;20.00;98.40;;;;;;4985829;28;19914;-78
2022/05/25 11:56:18;;;;;;;;;;;20.10;97.20;;;;;;4977178;28;19918;-79
2022/05/25 11:59:09;;;;;;;;;;;20.40;97.80;;;;;;4985747;28;20205;-81
2022/05/25 12:01:41;;;;;;;;;;;20.60;96.90;;;;;;4984817;28;19906;-79
2022/05/25 12:04:09;;;;;;;;;;;20.50;97.20;;;;;;4985846;28;20113;-79
2022/05/25 12:06:47;;;;;;;;;;;20.50;96.10;;;;;;4979698;28;20322;-78
2022/05/25 12:09:23;;;;;;;;;;;20.60;96.50;;;;;;4976353;28;19916;-79
2022/05/25 12:12:04;;;;;;;;;;;20.60;97.30;;;;;;4977801;28;19958;-79
2022/05/25 12:14:31;;;;;;;;;;;20.80;97.20;;;;;;4977938;28;19917;-79
2022/05/25 12:17:02;;;;;;;;;;;20.90;97.40;;;;;;4975590;28;19965;-78
2022/05/25 12:19:30;;;;;;;;;;;21.20;98.20;;;;;;4976024;28;19906;-78
2022/05/25 12:22:03;;;;;;;;;;;21.30;97.90;;;;;;4975480;28;19917;-79
2022/05/25 12:24:39;;;;;;;;;;;21.70;97.70;;;;;;4975320;28;20390;-79
2022/05/25 12:27:10;;;;;;;;;;;21.70;97.10;;;;;;4975701;28;19933;-79
2022/05/25 12:29:38;;;;;;;;;;;21.60;95.90;;;;;;4975243;28;20374;-79
2022/05/25 12:32:05;;;;;;;;;;;21.30;96.20;;;;;;4978553;28;19921;-79
2022/05/25 12:34:37;;;;;;;;;;;21.40;98.20;;;;;;4975386;28;19917;-78
2022/05/25 12:37:04;;;;;;;;;;;21.70;98.00;;;;;;4975802;28;20255;-79
2022/05/25 12:39:45;;;;;;;;;;;22.20;97.20;;;;;;4977455;28;20335;-79
2022/05/25 12:42:22;;;;;;;;;;;22.20;97.80;;;;;;4975019;28;19914;-79
2022/05/25 12:50:33;;;;;;;;;;;21.90;98.60;;;;;;4975420;28;20309;-79
2022/05/25 12:53:16;;;;;;;;;;;22.30;97.90;;;;;;4974961;28;19925;-79
2022/05/25 12:55:41;;;;;;;;;;;22.30;97.60;;;;;;4977676;28;19910;-79
2022/05/25 12:58:09;;;;;;;;;;;22.40;97.10;;;;;;4975083;28;20033;-79
2022/05/25 13:00:39;;;;;;;;;;;22.20;97.60;;;;;;4975046;28;19926;-79
2022/05/25 13:03:35;;;;;;;;;;;22.30;98.00;;;;;;4974857;28;19911;-80
2022/05/25 13:06:02;;;;;;;;;;;22.60;96.80;;;;;;4962278;28;19910;-80
2022/05/25 13:08:49;;;;;;;;;;;22.10;98.40;;;;;;4974929;28;19911;-81
2022/05/25 13:11:35;;;;;;;;;;;22.30;97.60;;;;;;4974700;28;19910;-79
2022/05/25 13:14:01;;;;;;;;;;;22.40;97.40;;;;;;4964153;28;19917;-80
2022/05/25 13:16:51;;;;;;;;;;;22.60;97.80;;;;;;4974710;28;19911;-81
2022/05/25 13:19:18;;;;;;;;;;;22.90;97.20;;;;;;4974628;28;19937;-80
2022/05/25 13:22:06;;;;;;;;;;;22.40;97.80;;;;;;4974714;28;19914;-80
2022/05/25 13:24:50;;;;;;;;;;;22.60;97.40;;;;;;4974573;28;20277;-80
2022/05/25 13:27:21;;;;;;;;;;;22.60;97.00;;;;;;4974586;28;20435;-81
2022/05/25 13:30:06;;;;;;;;;;;22.40;98.20;;;;;;4974710;28;19985;-80
2022/05/25 13:32:51;;;;;;;;;;;22.70;97.50;;;;;;4974645;28;20110;-81
2022/05/25 13:35:19;;;;;;;;;;;23.70;97.20;;;;;;4978802;28;20385;-81
2022/05/25 13:37:49;;;;;;;;;;;24.70;96.00;;;;;;4978201;28;19926;-81
2022/05/25 13:40:15;;;;;;;;;;;24.80;95.90;;;;;;4979437;28;19922;-81
2022/05/25 13:42:43;;;;;;;;;;;25.30;95.00;;;;;;4978567;28;19910;-82
2022/05/25 13:45:13;;;;;;;;;;;26.10;95.10;;;;;;4976936;28;19910;-82
2022/05/25 13:47:38;;;;;;;;;;;27.00;93.60;;;;;;4978608;28;19918;-82
2022/05/25 13:50:04;;;;;;;;;;;27.30;93.10;;;;;;4982294;28;19910;-81
2022/05/25 13:52:33;;;;;;;;;;;28.10;92.00;;;;;;4981909;28;19918;-81
2022/05/25 13:55:02;;;;;;;;;;;27.80;91.90;;;;;;4978295;28;19911;-81
2022/05/25 13:57:29;;;;;;;;;;;28.10;91.50;;;;;;4977910;28;19918;-81
2022/05/25 13:59:56;;;;;;;;;;;28.30;91.40;;;;;;4978077;28;19910;-81
2022/05/25 14:02:25;;;;;;;;;;;29.90;90.00;;;;;;4977801;28;19914;-81
2022/05/25 14:04:54;;;;;;;;;;;29.60;89.80;;;;;;4979717;28;20107;-82
2022/05/25 14:07:32;;;;;;;;;;;29.10;90.40;;;;;;4978469;28;19914;-81
2022/05/25 14:12:54;;;;;;;;;;;29.20;90.40;;;;;;4983069;28;20002;-80
2022/05/25 14:15:20;;;;;;;;;;;30.80;90.10;;;;;;4981582;28;19910;-82
2022/05/25 14:17:56;;;;;;;;;;;30.50;89.10;;;;;;4978445;28;19933;-82
2022/05/25 14:20:22;;;;;;;;;;;29.70;90.10;;;;;;4981641;28;19918;-82
2022/05/25 14:22:49;;;;;;;;;;;30.90;88.70;;;;;;4981079;28;20438;-81
2022/05/25 14:25:17;;;;;;;;;;;31.00;86.80;;;;;;4978583;28;19910;-82
2022/05/25 14:27:45;;;;;;;;;;;31.50;86.20;;;;;;4983698;28;19937;-82
2022/05/25 14:30:14;;;;;;;;;;;31.90;85.10;;;;;;4978091;28;19910;-83
2022/05/25 14:32:39;;;;;;;;;;;32.70;83.90;;;;;;4977273;28;19950;-82
2022/05/25 14:35:09;;;;;;;;;;;33.20;82.70;;;;;;4979129;28;19914;-84
2022/05/25 14:37:37;;;;;;;;;;;33.40;81.40;;;;;;4977231;28;19957;-82
2022/05/25 14:40:04;;;;;;;;;;;32.70;81.00;;;;;;4978015;28;20279;-82
2022/05/25 14:42:30;;;;;;;;;;;31.80;82.40;;;;;;4980554;28;20367;-81
2022/05/25 14:44:55;;;;;;;;;;;31.00;81.70;;;;;;4984473;28;19906;-81
2022/05/25 14:47:24;;;;;;;;;;;31.00;83.20;;;;;;4983098;28;19938;-82
2022/05/25 14:49:55;;;;;;;;;;;31.60;82.70;;;;;;4981826;28;20263;-82
2022/05/25 14:52:22;;;;;;;;;;;32.00;82.10;;;;;;4980203;28;19965;-82
2022/05/25 14:54:48;;;;;;;;;;;32.00;80.50;;;;;;4977381;28;19910;-82
2022/05/25 14:57:16;;;;;;;;;;;32.20;79.60;;;;;;4976944;28;19910;-82
2022/05/25 14:59:45;;;;;;;;;;;33.10;78.80;;;;;;4976988;28;20426;-83
2022/05/25 15:02:30;;;;;;;;;;;33.00;79.60;;;;;;4976976;28;20306;-82